createdAt,value
2022-11-18T00:01:32.521Z,7.45
2022-11-18T00:04:00.816Z,7.72
2022-11-18T00:06:32.588Z,7.00
2022-11-18T00:09:01.726Z,6.38
2022-11-18T00:14:20.733Z,4.10
2022-11-18T00:16:51.325Z,4.75
2022-11-18T00:19:20.485Z,4.72
2022-11-18T00:21:49.191Z,4.18
2022-11-18T00:24:17.452Z,4.07
2022-11-18T00:26:45.960Z,4.90
2022-11-18T00:29:14.771Z,4.72
2022-11-18T00:31:45.278Z,5.00
2022-11-18T00:34:15.331Z,4.93
2022-11-18T00:36:44.870Z,4.97
2022-11-18T00:39:14.509Z,4.05
2022-11-18T00:42:00.659Z,4.22
2022-11-18T00:44:29.342Z,5.05
2022-11-18T00:46:59.544Z,4.50
2022-11-18T00:49:27.583Z,5.90
2022-11-18T00:51:56.081Z,5.57
2022-11-18T00:54:24.207Z,5.68
2022-11-18T00:56:52.568Z,4.88
2022-11-18T00:59:21.032Z,3.08
2022-11-18T01:01:50.021Z,2.17
2022-11-18T01:04:19.698Z,1.50
2022-11-18T01:06:48.099Z,1.60
2022-11-18T01:09:16.664Z,1.65
2022-11-18T01:12:02.455Z,1.60
2022-11-18T01:14:30.963Z,1.55
2022-11-18T01:16:59.482Z,1.60
2022-11-18T01:19:29.002Z,1.67
2022-11-18T01:22:03.127Z,1.40
2022-11-18T01:24:32.108Z,1.90
2022-11-18T01:27:01.568Z,1.85
2022-11-18T01:29:30.001Z,2.13
2022-11-18T01:34:47.918Z,2.53
2022-11-18T01:37:16.321Z,2.13
2022-11-18T01:39:44.427Z,2.70
2022-11-18T01:42:16.053Z,2.63
2022-11-18T01:45:05.223Z,2.10
2022-11-18T01:47:37.192Z,2.20
2022-11-18T01:50:09.041Z,2.10
2022-11-18T01:52:39.094Z,2.15
2022-11-18T01:55:14.638Z,2.13
2022-11-18T01:57:43.494Z,2.38
2022-11-18T02:00:13.334Z,2.25
2022-11-18T02:02:41.691Z,2.30
2022-11-18T02:05:14.177Z,2.40
2022-11-18T02:07:44.626Z,2.58
2022-11-18T02:10:22.374Z,2.22
2022-11-18T02:12:51.912Z,2.03
2022-11-18T02:15:26.719Z,2.78
2022-11-18T02:18:03.470Z,2.15
2022-11-18T02:20:37.620Z,2.42
2022-11-18T02:23:54.107Z,2.38
2022-11-18T02:26:55.222Z,2.38
2022-11-18T02:29:28.655Z,2.33
2022-11-18T02:32:01.267Z,2.58
2022-11-18T02:34:41.379Z,2.85
2022-11-18T02:37:18.784Z,2.88
2022-11-18T02:39:56.696Z,2.70
2022-11-18T02:42:27.709Z,2.72
2022-11-18T02:45:01.753Z,2.40
2022-11-18T02:47:32.902Z,2.50
2022-11-18T02:50:05.004Z,3.00
2022-11-18T02:52:34.792Z,2.85
2022-11-18T02:55:05.416Z,2.85
2022-11-18T02:57:35.518Z,3.15
2022-11-18T03:00:06.541Z,2.80
2022-11-18T03:02:42.920Z,3.03
2022-11-18T03:05:18.295Z,3.10
2022-11-18T03:07:51.714Z,2.63
2022-11-18T03:10:24.747Z,3.13
2022-11-18T03:13:03.788Z,3.10
2022-11-18T03:15:38.332Z,3.28
2022-11-18T03:18:17.831Z,3.03
2022-11-18T03:20:51.293Z,3.10
2022-11-18T03:23:28.753Z,3.30
2022-11-18T03:26:00.843Z,3.15
2022-11-18T03:28:35.846Z,3.20
2022-11-18T03:31:36.814Z,2.88
2022-11-18T03:34:11.065Z,3.00
2022-11-18T03:36:43.054Z,2.75
2022-11-18T03:39:14.113Z,3.47
2022-11-18T03:41:52.936Z,3.65
2022-11-18T03:44:28.904Z,3.55
2022-11-18T03:47:03.528Z,3.55
2022-11-18T03:49:38.367Z,3.67
2022-11-18T03:52:12.092Z,4.50
2022-11-18T03:54:42.829Z,3.25
2022-11-18T03:57:16.129Z,3.78
2022-11-18T03:59:48.882Z,3.47
2022-11-18T04:02:21.781Z,4.30
2022-11-18T04:04:53.225Z,4.30
2022-11-18T04:07:26.045Z,4.63
2022-11-18T04:09:59.794Z,4.20
2022-11-18T04:12:32.862Z,4.30
2022-11-18T04:15:01.372Z,3.50
2022-11-18T04:17:31.566Z,4.47
2022-11-18T04:19:59.646Z,4.22
2022-11-18T04:22:28.080Z,4.07
2022-11-18T04:24:56.096Z,4.50
2022-11-18T04:27:24.439Z,3.83
2022-11-18T04:29:52.609Z,3.67
2022-11-18T04:32:20.995Z,3.87
2022-11-18T04:34:50.637Z,3.80
2022-11-18T04:37:19.177Z,3.30
2022-11-18T04:39:47.183Z,3.85
2022-11-18T04:42:15.839Z,3.67
2022-11-18T04:44:44.026Z,3.50
2022-11-18T04:47:12.369Z,4.22
2022-11-18T04:49:40.565Z,3.53
2022-11-18T04:52:10.450Z,3.67
2022-11-18T04:54:38.529Z,3.42
2022-11-18T04:57:07.023Z,4.65
2022-11-18T04:59:35.251Z,3.10
2022-11-18T05:02:03.919Z,3.60
2022-11-18T05:04:34.785Z,3.67
2022-11-18T05:07:05.158Z,3.13
2022-11-18T05:09:34.724Z,2.85
2022-11-18T05:12:22.725Z,2.97
2022-11-18T05:14:51.264Z,2.97
2022-11-18T05:17:20.259Z,3.22
2022-11-18T05:19:48.360Z,3.72
2022-11-18T05:22:16.720Z,3.63
2022-11-18T05:24:46.310Z,3.60
2022-11-18T05:27:15.319Z,3.20
2022-11-18T05:29:43.485Z,3.67
2022-11-18T05:32:12.075Z,3.00
2022-11-18T05:34:43.949Z,3.10
2022-11-18T05:37:13.044Z,3.13
2022-11-18T05:39:41.389Z,3.20
2022-11-18T05:42:28.814Z,3.97
2022-11-18T05:44:58.655Z,3.53
2022-11-18T05:47:50.130Z,3.38
2022-11-18T05:50:21.291Z,3.60
2022-11-18T05:52:50.010Z,3.58
2022-11-18T05:55:21.036Z,3.10
2022-11-18T05:57:53.687Z,3.55
2022-11-18T06:02:52.736Z,4.60
2022-11-18T06:05:23.162Z,3.25
2022-11-18T06:07:51.564Z,3.33
2022-11-18T06:10:24.866Z,3.38
2022-11-18T06:12:58.945Z,2.85
2022-11-18T06:15:29.653Z,3.13
2022-11-18T06:18:03.235Z,2.25
2022-11-18T06:20:31.630Z,2.45
2022-11-18T06:23:01.884Z,2.70
2022-11-18T06:25:30.769Z,3.00
2022-11-18T06:28:03.396Z,2.25
2022-11-18T06:30:31.893Z,2.00
2022-11-18T06:33:00.181Z,2.03
2022-11-18T06:35:28.281Z,2.10
2022-11-18T06:37:56.794Z,2.22
2022-11-18T06:40:24.828Z,2.00
2022-11-18T06:43:11.185Z,2.83
2022-11-18T06:46:07.686Z,2.22
2022-11-18T06:48:40.499Z,1.35
2022-11-18T06:51:09.104Z,1.80
2022-11-18T06:53:37.915Z,1.90
2022-11-18T06:56:07.313Z,1.40
2022-11-18T06:58:36.545Z,1.48
2022-11-18T07:01:12.793Z,2.20
2022-11-18T07:03:41.326Z,1.58
2022-11-18T07:06:10.363Z,2.08
2022-11-18T07:08:40.093Z,2.63
2022-11-18T07:13:43.351Z,1.60
2022-11-18T07:16:15.036Z,0.95
2022-11-18T07:18:44.938Z,1.02
2022-11-18T07:21:17.311Z,1.05
2022-11-18T07:23:45.859Z,0.60
2022-11-18T07:26:14.850Z,1.20
2022-11-18T07:28:43.287Z,0.88
2022-11-18T07:31:15.039Z,1.00
2022-11-18T07:33:45.947Z,1.70
2022-11-18T07:36:16.049Z,1.10
2022-11-18T07:38:44.689Z,1.15
2022-11-18T07:41:14.262Z,0.88
2022-11-18T07:43:45.086Z,1.13
2022-11-18T07:46:16.968Z,1.17
2022-11-18T07:48:47.221Z,1.35
2022-11-18T07:51:17.363Z,0.90
2022-11-18T07:53:46.196Z,0.70
2022-11-18T07:56:15.392Z,1.03
2022-11-18T08:01:16.795Z,0.70
2022-11-18T08:03:46.273Z,0.90
2022-11-18T08:06:16.286Z,0.88
2022-11-18T08:08:45.309Z,0.80
2022-11-18T08:11:20.593Z,0.73
2022-11-18T08:13:51.066Z,0.65
2022-11-18T08:16:22.362Z,1.20
2022-11-18T08:18:51.568Z,0.70
2022-11-18T08:21:22.375Z,1.13
2022-11-18T08:23:52.002Z,1.23
2022-11-18T08:26:20.829Z,1.48
2022-11-18T08:28:49.910Z,1.00
2022-11-18T08:31:21.670Z,1.30
2022-11-18T08:33:50.151Z,0.80
2022-11-18T08:36:20.081Z,1.17
2022-11-18T08:38:48.891Z,1.20
2022-11-18T08:41:19.534Z,1.45
2022-11-18T08:43:47.905Z,1.30
2022-11-18T08:46:16.293Z,1.00
2022-11-18T08:48:46.429Z,1.10
2022-11-18T08:51:16.042Z,1.95
2022-11-18T08:53:45.344Z,0.80
2022-11-18T08:56:17.242Z,0.80
2022-11-18T08:58:46.694Z,0.82
2022-11-18T09:01:15.275Z,1.02
2022-11-18T09:03:45.739Z,0.90
2022-11-18T09:06:19.422Z,1.25
2022-11-18T09:08:49.329Z,1.35
2022-11-18T09:11:21.166Z,0.90
2022-11-18T09:15:06.133Z,1.00
2022-11-18T09:16:43.699Z,0.93
2022-11-18T09:19:45.002Z,1.27
2022-11-18T09:22:03.314Z,1.30
2022-11-18T09:24:32.196Z,1.50
2022-11-18T09:27:02.224Z,1.00
2022-11-18T09:29:30.593Z,1.10
2022-11-18T09:32:01.912Z,0.98
2022-11-18T09:34:31.574Z,0.80
2022-11-18T09:37:00.217Z,1.50
2022-11-18T09:39:28.582Z,0.98
2022-11-18T09:42:13.023Z,1.27
2022-11-18T09:44:53.385Z,1.20
2022-11-18T09:47:28.709Z,0.80
2022-11-18T09:50:10.632Z,0.93
2022-11-18T09:53:02.095Z,0.70
2022-11-18T09:55:30.960Z,0.60
2022-11-18T09:58:00.528Z,1.10
2022-11-18T10:00:31.227Z,0.70
2022-11-18T10:03:04.948Z,0.82
2022-11-18T10:05:45.877Z,0.90
2022-11-18T10:08:23.165Z,0.88
2022-11-18T10:11:00.204Z,1.05
2022-11-18T10:13:43.450Z,1.20
2022-11-18T10:16:24.544Z,0.88
2022-11-18T10:19:00.576Z,2.17
2022-11-18T10:21:43.529Z,1.80
2022-11-18T10:24:18.050Z,0.95
2022-11-18T10:26:46.488Z,1.00
2022-11-18T10:29:14.924Z,1.45
2022-11-18T10:31:59.558Z,0.98
2022-11-18T10:34:31.755Z,0.98
2022-11-18T10:37:03.177Z,1.00
2022-11-18T10:39:31.603Z,0.90
2022-11-18T10:42:03.060Z,1.05
2022-11-18T10:44:40.067Z,1.00
2022-11-18T10:47:24.143Z,0.90
2022-11-18T10:49:53.452Z,0.73
2022-11-18T10:52:23.568Z,2.17
2022-11-18T10:55:22.290Z,0.85
2022-11-18T10:57:53.737Z,1.00
2022-11-18T11:00:53.706Z,0.60
2022-11-18T11:03:27.814Z,1.75
2022-11-18T11:06:39.588Z,1.48
2022-11-18T11:09:11.610Z,1.48
2022-11-18T11:11:43.782Z,1.05
2022-11-18T11:14:21.344Z,1.42
2022-11-18T11:16:57.909Z,2.08
2022-11-18T11:19:32.232Z,1.80
2022-11-18T11:22:00.935Z,1.60
2022-11-18T11:24:31.133Z,1.80
2022-11-18T11:30:16.572Z,1.20
2022-11-18T11:33:21.809Z,1.10
2022-11-18T11:35:58.983Z,3.35
2022-11-18T11:38:37.047Z,1.02
2022-11-18T11:41:17.582Z,2.00
2022-11-18T11:43:56.087Z,1.73
2022-11-18T11:46:42.417Z,1.80
2022-11-18T11:49:19.767Z,1.50
2022-11-18T11:51:52.995Z,1.65
2022-11-18T11:54:31.915Z,1.77
2022-11-18T11:57:06.316Z,1.40
2022-11-18T11:59:46.279Z,1.65
2022-11-18T12:02:39.877Z,2.55
2022-11-18T12:05:19.309Z,3.35
2022-11-18T12:07:52.810Z,3.38
2022-11-18T12:10:31.866Z,1.35
2022-11-18T12:13:17.197Z,1.50
2022-11-18T12:16:01.723Z,1.05
2022-11-18T12:18:37.151Z,1.98
2022-11-18T12:21:05.916Z,2.08
2022-11-18T12:23:35.016Z,1.50
2022-11-18T12:28:37.783Z,1.90
2022-11-18T12:31:33.420Z,2.20
2022-11-18T12:34:06.195Z,1.48
2022-11-18T12:36:38.637Z,1.75
2022-11-18T12:39:37.873Z,1.15
2022-11-18T12:44:55.154Z,4.00
2022-11-18T12:47:57.876Z,2.05
2022-11-18T12:50:49.776Z,2.17
2022-11-18T12:53:36.638Z,2.00
2022-11-18T12:56:21.620Z,1.88
2022-11-18T12:58:51.764Z,2.58
2022-11-18T13:01:28.252Z,2.75
2022-11-18T13:04:08.641Z,1.60
2022-11-18T13:06:40.142Z,2.03
2022-11-18T13:09:18.210Z,2.08
2022-11-18T13:11:52.038Z,3.03
2022-11-18T13:14:44.257Z,1.67
2022-11-18T13:17:46.952Z,1.95
2022-11-18T13:20:23.866Z,1.30
2022-11-18T13:23:10.991Z,2.08
2022-11-18T13:25:39.948Z,1.83
2022-11-18T13:28:20.324Z,1.50
2022-11-18T13:30:55.495Z,1.52
2022-11-18T13:33:25.359Z,1.38
2022-11-18T13:35:53.991Z,0.70
2022-11-18T13:38:28.490Z,1.00
2022-11-18T13:41:08.226Z,1.30
2022-11-18T13:43:36.689Z,1.38
2022-11-18T13:46:08.158Z,1.60
2022-11-18T13:48:41.925Z,2.50
2022-11-18T13:51:10.781Z,1.25
2022-11-18T13:53:40.465Z,1.10
2022-11-18T13:56:19.340Z,0.93
2022-11-18T13:59:16.317Z,1.20
2022-11-18T14:01:47.299Z,1.10
2022-11-18T14:04:22.870Z,0.95
2022-11-18T14:06:51.748Z,1.20
2022-11-18T14:09:24.843Z,1.20
2022-11-18T14:12:02.961Z,1.02
2022-11-18T14:14:33.885Z,1.23
2022-11-18T14:17:16.461Z,1.30
2022-11-18T14:19:46.779Z,1.40
2022-11-18T14:22:17.707Z,1.45
2022-11-18T14:24:56.006Z,3.88
2022-11-18T14:27:37.638Z,3.00
2022-11-18T14:30:31.252Z,2.70
2022-11-18T14:33:24.396Z,2.33
2022-11-18T14:35:58.296Z,1.83
2022-11-18T14:38:51.981Z,1.85
2022-11-18T14:41:44.689Z,3.13
2022-11-18T14:44:14.700Z,3.60
2022-11-18T14:46:45.847Z,1.90
2022-11-18T14:49:17.350Z,1.58
2022-11-18T14:51:47.419Z,2.13
2022-11-18T14:54:23.788Z,2.47
2022-11-18T14:56:58.052Z,2.50
2022-11-18T14:59:28.562Z,2.13
2022-11-18T15:01:59.001Z,1.63
2022-11-18T15:04:27.877Z,2.63
2022-11-18T15:06:57.419Z,2.22
2022-11-18T15:09:28.631Z,2.13
2022-11-18T15:11:59.070Z,2.05
2022-11-18T15:14:27.971Z,1.17
2022-11-18T15:16:56.038Z,0.88
2022-11-18T15:19:24.447Z,1.30
2022-11-18T15:21:52.693Z,1.45
2022-11-18T15:24:22.602Z,1.63
2022-11-18T15:26:50.898Z,1.17
2022-11-18T15:29:20.903Z,1.13
2022-11-18T15:31:49.652Z,2.00
2022-11-18T15:34:20.436Z,2.83
2022-11-18T15:36:49.352Z,4.45
2022-11-18T15:39:17.887Z,6.72
2022-11-18T15:41:47.793Z,6.18
2022-11-18T15:44:16.940Z,6.43
2022-11-18T15:46:49.123Z,4.35
2022-11-18T15:49:18.839Z,4.80
2022-11-18T15:54:15.430Z,3.97
2022-11-18T15:56:43.571Z,4.50
2022-11-18T15:59:14.546Z,4.00
2022-11-18T16:01:44.133Z,3.30
2022-11-18T16:04:14.450Z,3.13
2022-11-18T16:06:44.338Z,2.53
2022-11-18T16:09:15.767Z,2.50
2022-11-18T16:12:02.086Z,3.17
2022-11-18T16:14:31.812Z,2.83
2022-11-18T16:19:33.627Z,4.22
2022-11-18T16:22:01.841Z,5.20
2022-11-18T16:24:31.004Z,6.20
2022-11-18T16:26:59.844Z,6.43
2022-11-18T16:29:28.240Z,6.88
2022-11-18T16:31:57.818Z,7.97
2022-11-18T16:34:27.905Z,6.13
2022-11-18T16:36:57.802Z,6.03
2022-11-18T16:39:27.589Z,8.60
2022-11-18T16:42:02.091Z,5.35
2022-11-18T16:44:35.351Z,4.53
2022-11-18T16:47:12.376Z,4.73
2022-11-18T16:49:43.119Z,3.50
2022-11-18T16:52:11.703Z,3.87
2022-11-18T16:54:45.176Z,3.95
2022-11-18T16:57:14.484Z,4.28
2022-11-18T16:59:42.871Z,4.72
2022-11-18T17:02:14.055Z,3.80
2022-11-18T17:04:42.951Z,3.45
2022-11-18T17:07:11.178Z,3.42
2022-11-18T17:09:40.151Z,3.30
2022-11-18T17:12:08.952Z,3.13
2022-11-18T17:14:38.623Z,3.95
2022-11-18T17:19:37.239Z,3.17
2022-11-18T17:22:05.333Z,2.97
2022-11-18T17:24:34.089Z,4.57
2022-11-18T17:27:02.536Z,6.15
2022-11-18T17:29:32.928Z,4.68
2022-11-18T17:32:01.451Z,5.68
2022-11-18T17:34:32.285Z,4.82
2022-11-18T17:37:06.832Z,4.35
2022-11-18T17:39:35.891Z,5.28
2022-11-18T17:42:18.238Z,3.83
2022-11-18T17:44:47.196Z,3.75
2022-11-18T17:47:15.335Z,3.40
2022-11-18T17:49:43.874Z,4.47
2022-11-18T17:52:13.372Z,4.57
2022-11-18T17:54:41.760Z,4.38
2022-11-18T17:57:09.959Z,4.15
2022-11-18T17:59:38.898Z,5.70
2022-11-18T18:02:14.624Z,6.28
2022-11-18T18:04:43.141Z,4.18
2022-11-18T18:07:11.230Z,7.38
2022-11-18T18:09:41.097Z,7.78
2022-11-18T18:12:23.359Z,6.97
2022-11-18T18:14:52.254Z,7.40
2022-11-18T18:17:20.350Z,9.40
2022-11-18T18:19:48.719Z,8.13
2022-11-18T18:22:16.975Z,9.35
2022-11-18T18:24:46.707Z,9.70
2022-11-18T18:29:43.529Z,11.20
2022-11-18T18:32:11.612Z,9.60
2022-11-18T18:34:39.988Z,5.65
2022-11-18T18:37:09.384Z,4.18
2022-11-18T18:39:37.922Z,3.60
2022-11-18T18:42:07.950Z,3.88
2022-11-18T18:44:54.449Z,3.65
2022-11-18T18:47:22.528Z,3.63
2022-11-18T18:49:51.127Z,3.95
2022-11-18T18:52:19.286Z,4.22
2022-11-18T18:54:47.675Z,4.17
2022-11-18T18:57:17.139Z,5.60
2022-11-18T18:59:48.763Z,7.60
2022-11-18T19:02:16.928Z,5.85
2022-11-18T19:04:46.653Z,6.30
2022-11-18T19:07:16.964Z,9.07
2022-11-18T19:09:48.119Z,6.15
2022-11-18T19:12:34.434Z,4.50
2022-11-18T19:15:02.899Z,7.10
2022-11-18T19:17:32.603Z,7.43
2022-11-18T19:20:18.622Z,3.22
2022-11-18T19:22:46.726Z,3.10
2022-11-18T19:25:15.238Z,3.17
2022-11-18T19:27:44.952Z,2.88
2022-11-18T19:30:13.961Z,2.97
2022-11-18T19:32:42.939Z,3.50
2022-11-18T19:35:11.767Z,3.45
2022-11-18T19:37:41.047Z,3.80
2022-11-18T19:40:13.377Z,4.90
2022-11-18T19:42:42.732Z,6.47
2022-11-18T19:45:13.019Z,6.22
2022-11-18T19:47:41.436Z,7.50
2022-11-18T19:50:10.903Z,6.65
2022-11-18T19:52:39.032Z,17.40
2022-11-18T19:55:12.811Z,7.83
2022-11-18T19:57:40.874Z,11.60
2022-11-18T20:00:11.106Z,7.35
2022-11-18T20:02:41.614Z,5.78
2022-11-18T20:05:27.541Z,4.53
2022-11-18T20:07:56.819Z,4.57
2022-11-18T20:10:25.451Z,4.95
2022-11-18T20:12:53.818Z,4.78
2022-11-18T20:15:22.505Z,5.00
2022-11-18T20:17:51.995Z,4.65
2022-11-18T20:20:20.648Z,4.65
2022-11-18T20:22:48.834Z,5.15
2022-11-18T20:25:19.713Z,4.23
2022-11-18T20:27:48.028Z,4.53
2022-11-18T20:30:18.472Z,4.70
2022-11-18T20:32:46.824Z,4.20
2022-11-18T20:35:17.022Z,4.13
2022-11-18T20:37:45.246Z,3.83
2022-11-18T20:40:13.870Z,4.03
2022-11-18T20:43:00.290Z,3.72
2022-11-18T20:45:28.717Z,5.82
2022-11-18T20:47:56.802Z,5.00
2022-11-18T20:50:30.659Z,4.10
2022-11-18T20:52:59.769Z,3.70
2022-11-18T20:55:28.425Z,3.03
2022-11-18T20:58:01.522Z,3.38
2022-11-18T21:00:29.899Z,3.33
2022-11-18T21:02:58.364Z,2.72
2022-11-18T21:05:31.330Z,2.88
2022-11-18T21:07:59.709Z,2.90
2022-11-18T21:10:28.041Z,3.17
2022-11-18T21:13:13.882Z,6.57
2022-11-18T21:15:43.348Z,7.32
2022-11-18T21:18:13.765Z,8.20
2022-11-18T21:21:01.447Z,8.10
2022-11-18T21:23:29.527Z,8.93
2022-11-18T21:25:58.052Z,8.40
2022-11-18T21:28:28.416Z,8.02
2022-11-18T21:30:57.145Z,8.40
2022-11-18T21:33:25.319Z,8.70
2022-11-18T21:35:55.195Z,8.70
2022-11-18T21:38:23.867Z,7.85
2022-11-18T21:40:52.385Z,8.25
2022-11-18T21:43:32.806Z,7.32
2022-11-18T21:46:10.657Z,8.93
2022-11-18T21:48:40.464Z,7.35
2022-11-18T21:51:12.875Z,8.05
2022-11-18T21:53:41.127Z,7.57
2022-11-18T21:56:12.476Z,8.07
2022-11-18T21:58:40.658Z,8.35
2022-11-18T22:01:11.142Z,8.20
2022-11-18T22:03:41.271Z,8.60
2022-11-18T22:06:13.526Z,8.70
2022-11-18T22:08:42.396Z,8.95
2022-11-18T22:11:12.859Z,7.03
2022-11-18T22:13:41.739Z,8.27
2022-11-18T22:16:13.083Z,7.55
2022-11-18T22:18:43.245Z,7.85
2022-11-18T22:21:14.921Z,8.45
2022-11-18T22:23:43.821Z,7.53
2022-11-18T22:26:14.287Z,7.93
2022-11-18T22:28:42.750Z,7.18
2022-11-18T22:31:14.183Z,7.63
2022-11-18T22:33:42.964Z,7.28
2022-11-18T22:36:15.143Z,6.22
2022-11-18T22:38:44.585Z,6.22
2022-11-18T22:41:34.716Z,6.72
2022-11-18T22:44:07.036Z,7.40
2022-11-18T22:46:36.882Z,5.93
2022-11-18T22:49:05.573Z,6.85
2022-11-18T22:51:35.921Z,5.88
2022-11-18T22:56:54.814Z,5.80
2022-11-18T22:59:23.415Z,5.47
2022-11-18T23:01:52.326Z,5.78
2022-11-18T23:04:20.905Z,6.22
2022-11-18T23:06:51.133Z,5.35
2022-11-18T23:09:19.528Z,6.53
2022-11-18T23:12:05.860Z,6.00
2022-11-18T23:14:34.177Z,8.90
2022-11-18T23:17:02.605Z,7.57
2022-11-18T23:19:30.953Z,8.70
2022-11-18T23:22:02.244Z,7.38
2022-11-18T23:26:58.644Z,7.32
2022-11-18T23:29:26.802Z,6.20
2022-11-18T23:31:55.677Z,6.23
2022-11-18T23:34:24.250Z,7.97
2022-11-18T23:36:52.672Z,5.30
2022-11-18T23:39:22.489Z,5.22
2022-11-18T23:41:51.171Z,5.60
2022-11-18T23:44:39.253Z,6.68
2022-11-18T23:47:07.841Z,4.20
2022-11-18T23:49:37.094Z,4.97
2022-11-18T23:52:05.854Z,5.00
2022-11-18T23:54:35.326Z,4.23
2022-11-18T23:57:05.390Z,4.68
2022-11-18T23:59:33.766Z,4.95
